This is the latest recevied weather packets stored in our database for station/object MM9SQL. If no packets are shown the sender has not sent any weather packets the latest 10 day(s).
| Time | Temp. | Humidity | Pressure | Rain* | Wind** | Luminosity | Snow |
|---|---|---|---|---|---|---|---|
| 1778148016 | 12.22° C | 53% | 1009.9 hPa | 0 mm | - | - | - |
| 1778147704 | 12.22° C | 55% | 1009.9 hPa | 0 mm | - | - | - |
| 1778147404 | 12.22° C | 56% | 1009.9 hPa | 0 mm | - | - | - |
| 1778146504 | 11.67° C | 57% | 1009.9 hPa | 0 mm | - | - | - |
| 1778145903 | 11.67° C | 57% | 1010.3 hPa | 0 mm | - | - | - |
| 1778145006 | 11.67° C | 58% | 1010.2 hPa | 0 mm | - | - | - |
| 1778141403 | 10° C | 62% | 1010.3 hPa | 0 mm | - | - | - |
| 1778138406 | 8.89° C | 64% | 1010.4 hPa | 0 mm | - | - | - |
| 1778137504 | 8.89° C | 65% | 1010.4 hPa | 0 mm | - | - | - |
| 1778134518 | 7.22° C | 69% | 1010.3 hPa | 0 mm | - | - | - |
| 1778134207 | 6.67° C | 71% | 1010.4 hPa | 0 mm | - | - | - |
| 1778133003 | 6.67° C | 73% | 1010.7 hPa | 0 mm | - | - | - |
| 1778130018 | 6.67° C | 71% | 1010.7 hPa | 0 mm | - | - | - |
| 1778128208 | 6.11° C | 70% | 1010.8 hPa | 0 mm | - | - | - |
| 1778126707 | 6.67° C | 69% | 1010.7 hPa | 0 mm | - | - | - |
| 1778125207 | 7.22° C | 67% | 1010.8 hPa | 0 mm | - | - | - |
| 1778123105 | 7.78° C | 65% | 1010.9 hPa | 0 mm | - | - | - |
| 1778119504 | 7.78° C | 63% | 1011.2 hPa | 0 mm | - | - | - |
| 1778106608 | 7.78° C | 64% | 1012.4 hPa | 0 mm | - | - | - |
| 1778103309 | 8.33° C | 59% | 1012.5 hPa | 0 mm | - | - | - |
| 1778103003 | 8.33° C | 59% | 1012.5 hPa | 0 mm | - | - | - |
| 1778101805 | 8.89° C | 59% | 1012.5 hPa | 0 mm | - | - | - |
| 1778100606 | 8.89° C | 60% | 1012.7 hPa | 0 mm | - | - | - |
| 1778100002 | 8.89° C | 60% | 1012.6 hPa | 0 mm | - | - | - |
| 1778096409 | 9.44° C | 61% | 1012.8 hPa | 0 mm | - | - | - |
* Rain latest hour (hover to see other rain measurements)
** Current wind speed in m/s (hover to see current wind gust speed)